createdAt,value
2023-01-04T00:00:16.407Z,5.18
2023-01-04T00:05:17.170Z,5.15
2023-01-04T00:10:17.837Z,5.06
2023-01-04T00:15:20.072Z,4.99
2023-01-04T00:20:20.769Z,4.91
2023-01-04T00:25:21.445Z,4.78
2023-01-04T00:30:24.096Z,4.72
2023-01-04T00:35:44.824Z,4.69
2023-01-04T00:40:45.682Z,4.67
2023-01-04T00:45:47.890Z,4.72
2023-01-04T00:50:50.244Z,4.83
2023-01-04T00:55:50.945Z,4.80
2023-01-04T01:00:52.937Z,4.72
2023-01-04T01:05:53.602Z,4.58
2023-01-04T01:10:54.666Z,4.47
2023-01-04T01:15:56.786Z,4.43
2023-01-04T01:20:57.530Z,4.36
2023-01-04T01:26:01.167Z,4.29
2023-01-04T01:31:08.802Z,4.12
2023-01-04T01:36:10.954Z,4.14
2023-01-04T01:41:18.317Z,4.04
2023-01-04T01:46:24.586Z,4.05
2023-01-04T01:51:25.744Z,4.03
2023-01-04T01:56:29.379Z,3.91
2023-01-04T02:01:31.510Z,3.89
2023-01-04T02:06:35.518Z,3.89
2023-01-04T02:11:36.167Z,3.84
2023-01-04T02:17:06.289Z,3.79
2023-01-04T02:22:36.557Z,3.79
2023-01-04T02:27:50.355Z,3.72
2023-01-04T02:33:04.182Z,3.71
2023-01-04T02:38:15.953Z,3.57
2023-01-04T02:43:40.055Z,3.69
2023-01-04T02:49:00.275Z,3.58
2023-01-04T02:54:05.357Z,3.62
2023-01-04T02:59:23.666Z,3.67
2023-01-04T03:04:56.906Z,3.65
2023-01-04T03:10:05.686Z,3.62
2023-01-04T03:15:13.685Z,3.69
2023-01-04T03:20:18.861Z,3.67
2023-01-04T03:25:41.031Z,3.68
2023-01-04T03:31:06.721Z,3.68
2023-01-04T03:36:19.075Z,3.76
2023-01-04T03:41:44.184Z,3.76
2023-01-04T03:47:08.084Z,3.68
2023-01-04T03:52:13.037Z,3.71
2023-01-04T03:57:15.489Z,3.65
2023-01-04T04:02:19.181Z,3.70
2023-01-04T04:07:38.859Z,3.75
2023-01-04T04:12:39.610Z,3.80
2023-01-04T04:17:40.267Z,3.92
2023-01-04T04:22:42.550Z,4.04
2023-01-04T04:27:43.220Z,4.10
2023-01-04T04:32:43.935Z,4.08
2023-01-04T04:37:45.945Z,4.16
2023-01-04T04:42:46.944Z,4.20
2023-01-04T04:47:47.613Z,4.21
2023-01-04T04:52:55.672Z,4.17
2023-01-04T04:57:56.809Z,4.16
2023-01-04T05:02:59.592Z,4.23
2023-01-04T05:08:01.829Z,4.13
2023-01-04T05:13:02.523Z,4.25
2023-01-04T05:18:03.743Z,5.16
2023-01-04T05:23:06.798Z,4.69
2023-01-04T05:28:07.643Z,4.47
2023-01-04T05:33:09.121Z,4.44
2023-01-04T05:38:11.291Z,4.44
2023-01-04T05:43:13.737Z,4.44
2023-01-04T05:48:14.485Z,4.51
2023-01-04T05:53:18.945Z,4.51
2023-01-04T05:58:19.645Z,4.54
2023-01-04T06:03:20.451Z,4.51
2023-01-04T06:08:22.576Z,4.52
2023-01-04T06:13:23.341Z,4.43
2023-01-04T06:18:24.015Z,4.50
2023-01-04T06:23:26.030Z,4.67
2023-01-04T06:28:26.727Z,4.65
2023-01-04T06:33:27.420Z,4.69
2023-01-04T06:38:29.522Z,4.71
2023-01-04T06:43:30.249Z,4.70
2023-01-04T06:48:30.889Z,4.99
2023-01-04T06:53:32.921Z,4.98
2023-01-04T06:58:33.595Z,4.97
2023-01-04T07:03:34.409Z,4.94
2023-01-04T07:08:36.471Z,4.89
2023-01-04T07:13:37.172Z,4.94
2023-01-04T07:18:37.979Z,5.02
2023-01-04T07:23:40.103Z,5.14
2023-01-04T07:29:00.671Z,5.12
2023-01-04T07:34:01.325Z,5.18
2023-01-04T07:39:03.711Z,5.23
2023-01-04T07:44:04.551Z,5.39
2023-01-04T07:49:08.988Z,5.59
2023-01-04T07:54:13.751Z,5.70
2023-01-04T07:59:16.393Z,5.80
2023-01-04T08:04:17.199Z,5.95
2023-01-04T08:09:20.061Z,6.02
2023-01-04T08:14:20.740Z,6.10
2023-01-04T08:19:22.758Z,6.17
2023-01-04T08:24:24.825Z,6.14
2023-01-04T08:29:29.589Z,6.18
2023-01-04T08:34:35.147Z,6.09
2023-01-04T08:39:37.398Z,6.21
2023-01-04T08:44:38.159Z,6.22
2023-01-04T08:49:38.884Z,6.32
2023-01-04T08:54:40.964Z,6.51
2023-01-04T08:59:41.684Z,6.58
2023-01-04T09:04:42.415Z,6.53
2023-01-04T09:09:44.674Z,6.46
2023-01-04T09:14:45.456Z,6.50
2023-01-04T09:19:46.163Z,6.40
2023-01-04T09:24:48.240Z,6.57
2023-01-04T09:29:48.997Z,6.64
2023-01-04T09:34:49.763Z,6.73
2023-01-04T09:39:51.941Z,6.73
2023-01-04T09:45:23.297Z,6.72
2023-01-04T09:50:22.040Z,6.73
2023-01-04T09:55:37.112Z,6.67
2023-01-04T10:00:45.906Z,6.67
2023-01-04T10:05:46.656Z,6.72
2023-01-04T10:11:03.850Z,6.72
2023-01-04T10:16:17.679Z,6.74
2023-01-04T10:21:41.453Z,6.89
2023-01-04T10:26:47.966Z,6.76
2023-01-04T10:31:55.141Z,6.99
2023-01-04T10:37:00.216Z,7.28
2023-01-04T10:42:13.424Z,7.50
2023-01-04T10:47:20.995Z,7.38
2023-01-04T10:52:26.960Z,7.50
2023-01-04T10:57:35.324Z,7.33
2023-01-04T11:02:42.491Z,7.27
2023-01-04T11:07:48.940Z,7.30
2023-01-04T11:12:51.092Z,7.44
2023-01-04T11:17:52.813Z,7.53
2023-01-04T11:22:59.787Z,7.59
2023-01-04T11:28:08.409Z,7.68
2023-01-04T11:33:14.761Z,7.67
2023-01-04T11:38:18.372Z,7.75
2023-01-04T11:43:21.998Z,7.88
2023-01-04T11:48:39.801Z,7.93
2023-01-04T11:53:40.516Z,8.02
2023-01-04T11:58:44.001Z,8.14
2023-01-04T12:03:45.801Z,8.19
2023-01-04T12:08:47.678Z,8.08
2023-01-04T12:13:49.802Z,7.90
2023-01-04T12:18:51.657Z,8.01
2023-01-04T12:23:53.762Z,7.85
2023-01-04T12:29:49.910Z,7.82
2023-01-04T12:34:50.638Z,7.73
2023-01-04T12:39:51.654Z,7.83
2023-01-04T12:45:24.928Z,8.06
2023-01-04T12:50:27.690Z,7.93
2023-01-04T12:55:53.493Z,7.87
2023-01-04T13:01:25.553Z,7.96
2023-01-04T13:06:28.944Z,7.88
2023-01-04T13:11:42.741Z,7.85
2023-01-04T13:16:57.105Z,7.84
2023-01-04T13:21:58.960Z,7.96
2023-01-04T13:27:08.402Z,8.17
2023-01-04T13:32:13.107Z,8.22
2023-01-04T13:37:27.354Z,8.46
2023-01-04T13:42:30.852Z,8.49
2023-01-04T13:47:36.491Z,8.62
2023-01-04T13:53:05.743Z,8.78
2023-01-04T13:57:59.885Z,8.92
2023-01-04T14:03:13.982Z,9.24
2023-01-04T14:08:21.780Z,9.24
2023-01-04T14:13:22.464Z,9.49
2023-01-04T14:18:29.726Z,9.63
2023-01-04T14:23:35.483Z,9.70
2023-01-04T14:28:43.165Z,9.75
2023-01-04T14:33:53.516Z,9.78
2023-01-04T14:39:01.773Z,9.65
2023-01-04T14:44:14.688Z,9.44
2023-01-04T14:49:19.803Z,9.44
2023-01-04T14:54:25.028Z,9.52
2023-01-04T14:59:27.163Z,9.72
2023-01-04T15:04:29.332Z,9.78
2023-01-04T15:09:31.282Z,9.85
2023-01-04T15:14:31.965Z,9.87
2023-01-04T15:19:37.770Z,9.48
2023-01-04T15:24:39.053Z,9.32
2023-01-04T15:29:39.804Z,9.30
2023-01-04T15:34:46.662Z,9.40
2023-01-04T15:39:48.267Z,9.32
2023-01-04T15:44:48.961Z,9.44
2023-01-04T15:49:51.056Z,9.42
2023-01-04T15:54:51.794Z,9.56
2023-01-04T15:59:52.566Z,9.48
2023-01-04T16:04:54.625Z,9.41
2023-01-04T16:09:55.422Z,9.43
2023-01-04T16:14:56.156Z,9.53
2023-01-04T16:19:58.216Z,9.49
2023-01-04T16:25:14.310Z,9.51
2023-01-04T16:30:15.593Z,9.59
2023-01-04T16:35:17.876Z,9.71
2023-01-04T16:40:18.680Z,9.76
2023-01-04T16:45:20.194Z,9.75
2023-01-04T16:50:22.311Z,9.84
2023-01-04T16:55:24.223Z,9.95
2023-01-04T17:00:25.262Z,9.99
2023-01-04T17:05:27.299Z,10.21
2023-01-04T17:10:29.809Z,10.33
2023-01-04T17:15:46.125Z,10.34
2023-01-04T17:20:55.537Z,10.47
2023-01-04T17:26:03.198Z,10.58
2023-01-04T17:31:06.804Z,10.65
2023-01-04T17:36:11.902Z,10.64
2023-01-04T17:41:14.690Z,10.70
2023-01-04T17:46:22.557Z,10.81
2023-01-04T17:51:26.110Z,10.71
2023-01-04T17:56:29.002Z,10.81
2023-01-04T18:01:30.848Z,10.88
2023-01-04T18:06:35.000Z,10.94
2023-01-04T18:11:36.301Z,10.87
2023-01-04T18:16:56.253Z,11.07
2023-01-04T18:22:01.487Z,11.01
2023-01-04T18:27:21.097Z,11.04
2023-01-04T18:32:23.778Z,11.13
2023-01-04T18:37:25.869Z,11.15
2023-01-04T18:42:26.625Z,11.28
2023-01-04T18:47:27.944Z,11.39
2023-01-04T18:52:30.209Z,11.50
2023-01-04T18:57:30.923Z,11.55
2023-01-04T19:02:31.732Z,11.62
2023-01-04T19:07:38.753Z,11.54
2023-01-04T19:12:39.451Z,11.71
2023-01-04T19:17:40.209Z,11.77
2023-01-04T19:22:42.297Z,11.86
2023-01-04T19:27:43.003Z,12.00
2023-01-04T19:32:43.808Z,11.86
2023-01-04T19:37:45.827Z,11.95
2023-01-04T19:42:47.091Z,12.09
2023-01-04T19:47:50.540Z,12.05
2023-01-04T19:52:52.819Z,12.04
2023-01-04T19:57:53.796Z,11.94
2023-01-04T20:02:54.723Z,11.99
2023-01-04T20:07:56.890Z,11.91
2023-01-04T20:12:57.750Z,12.02
2023-01-04T20:17:58.508Z,11.97
2023-01-04T20:23:00.587Z,11.94
2023-01-04T20:28:01.380Z,11.93
2023-01-04T20:33:02.497Z,11.93
2023-01-04T20:38:04.665Z,11.86
2023-01-04T20:43:23.124Z,11.88
2023-01-04T20:48:24.670Z,11.82
2023-01-04T20:53:26.769Z,11.70
2023-01-04T20:58:27.443Z,11.65
2023-01-04T21:03:28.244Z,11.59
2023-01-04T21:08:31.096Z,11.56
2023-01-04T21:13:31.999Z,11.67
2023-01-04T21:18:33.853Z,11.59
2023-01-04T21:23:36.619Z,11.72
2023-01-04T21:28:37.574Z,11.80
2023-01-04T21:33:38.393Z,11.79
2023-01-04T21:38:40.415Z,11.75
2023-01-04T21:43:41.769Z,11.65
2023-01-04T21:48:43.251Z,11.53
2023-01-04T21:53:45.350Z,11.39
2023-01-04T21:58:46.181Z,11.34
2023-01-04T22:03:47.331Z,11.44
2023-01-04T22:08:50.023Z,11.55
2023-01-04T22:13:50.876Z,11.72
2023-01-04T22:18:52.140Z,11.84
2023-01-04T22:23:55.253Z,11.95
2023-01-04T22:28:56.037Z,11.97
2023-01-04T22:33:56.744Z,12.01
2023-01-04T22:38:58.951Z,11.97
2023-01-04T22:44:01.572Z,11.99
2023-01-04T22:49:03.404Z,12.02
2023-01-04T22:54:06.560Z,12.06
2023-01-04T22:59:07.244Z,12.11
2023-01-04T23:04:08.062Z,12.06
2023-01-04T23:09:11.913Z,12.08
2023-01-04T23:14:14.589Z,12.06
2023-01-04T23:19:17.731Z,12.08
2023-01-04T23:24:19.786Z,11.99
2023-01-04T23:29:20.518Z,11.76
2023-01-04T23:34:21.203Z,11.67
2023-01-04T23:39:23.310Z,11.56
2023-01-04T23:44:25.471Z,11.52
2023-01-04T23:49:27.695Z,11.55
2023-01-04T23:54:30.219Z,11.51
2023-01-04T23:59:31.510Z,11.54
